Time;durP1;ratioP1;P1;durP2;ratioP2;P2;SDS_P1;SDS_P2;PMS_P1;PMS_P2;Temp;Humidity;BMP_temperature;BMP_pressure;BME280_temperature;BME280_humidity;BME280_pressure;Samples;Min_cycle;Max_cycle;Signal;HPM_P1;HPM_P2
2022/02/23 00:01:02;;;;;;;9.03;3.30;;;7.60;99.90;;;;;;5015213;28;21252;-84
2022/02/23 00:03:28;;;;;;;6.87;2.93;;;7.50;99.90;;;;;;5022257;28;20228;-85
2022/02/23 00:05:54;;;;;;;7.53;3.50;;;7.60;99.90;;;;;;5017305;28;20193;-84
2022/02/23 00:08:19;;;;;;;7.43;2.87;;;7.60;99.90;;;;;;5013001;28;20197;-85
2022/02/23 00:10:45;;;;;;;10.27;3.50;;;7.60;99.90;;;;;;5017099;28;20631;-84
2022/02/23 00:13:11;;;;;;;3.67;2.43;;;7.60;99.90;;;;;;5018134;28;20201;-84
2022/02/23 00:15:36;;;;;;;9.43;2.90;;;7.60;99.90;;;;;;4997727;28;20204;-84
2022/02/23 00:18:18;;;;;;;9.93;3.40;;;7.60;99.90;;;;;;5020515;28;20198;-85
2022/02/23 00:20:44;;;;;;;8.00;3.33;;;7.60;99.90;;;;;;5015396;28;20557;-84
2022/02/23 00:23:09;;;;;;;8.57;3.33;;;7.50;99.90;;;;;;4996860;28;20706;-84
2022/02/23 00:25:35;;;;;;;8.27;2.90;;;7.50;99.90;;;;;;5018307;28;20281;-85
2022/02/23 00:28:24;;;;;;;5.80;2.80;;;7.60;99.90;;;;;;5016039;28;20198;-86
2022/02/23 00:30:50;;;;;;;8.07;3.07;;;7.60;99.90;;;;;;4994464;28;20260;-85
2022/02/23 00:33:16;;;;;;;9.83;3.00;;;7.60;99.90;;;;;;5012023;28;20190;-85
2022/02/23 00:35:41;;;;;;;5.80;3.10;;;7.60;99.90;;;;;;5002364;28;20290;-84
2022/02/23 00:38:07;;;;;;;8.30;3.37;;;7.60;99.90;;;;;;5014831;28;20202;-86
2022/02/23 00:40:33;;;;;;;11.93;3.33;;;7.70;99.90;;;;;;5010886;28;20297;-87
2022/02/23 00:42:59;;;;;;;5.60;2.70;;;7.60;99.90;;;;;;5014269;28;20209;-84
2022/02/23 00:45:25;;;;;;;6.90;2.70;;;7.70;99.90;;;;;;5035165;28;20205;-86
2022/02/23 00:47:51;;;;;;;9.27;2.97;;;7.60;99.90;;;;;;4997041;28;20197;-86
2022/02/23 00:50:17;;;;;;;7.57;3.30;;;7.60;99.90;;;;;;5015561;28;20257;-82
2022/02/23 00:52:43;;;;;;;12.63;3.23;;;7.70;99.90;;;;;;5019578;28;20193;-83
2022/02/23 00:55:09;;;;;;;6.33;2.97;;;7.60;99.90;;;;;;5031394;28;20190;-84
2022/02/23 00:57:34;;;;;;;6.03;2.80;;;7.50;99.90;;;;;;4995803;28;20197;-86
2022/02/23 01:00:00;;;;;;;7.87;3.37;;;7.60;99.90;;;;;;5009435;28;20192;-86
2022/02/23 01:02:26;;;;;;;6.57;3.23;;;7.60;99.90;;;;;;5015272;28;20221;-86
2022/02/23 01:04:52;;;;;;;6.97;3.20;;;7.50;99.90;;;;;;5016908;28;20237;-86
2022/02/23 01:07:18;;;;;;;8.00;2.90;;;7.70;99.90;;;;;;5014895;28;20181;-86
2022/02/23 01:09:44;;;;;;;10.43;2.97;;;7.60;99.90;;;;;;5014775;28;20675;-86
2022/02/23 01:12:10;;;;;;;4.73;2.40;;;7.60;99.90;;;;;;5014733;28;20235;-86
2022/02/23 01:14:36;;;;;;;5.57;2.80;;;7.60;99.90;;;;;;5009375;28;20776;-87
2022/02/23 01:17:03;;;;;;;6.10;2.90;;;7.70;99.90;;;;;;5013048;28;20197;-86
2022/02/23 01:19:29;;;;;;;7.00;2.90;;;7.60;99.90;;;;;;5015595;28;20244;-85
2022/02/23 01:21:55;;;;;;;5.30;2.90;;;7.60;99.90;;;;;;5011096;28;20707;-86
2022/02/23 01:24:21;;;;;;;7.47;2.93;;;7.70;99.90;;;;;;4990660;28;20247;-86
2022/02/23 01:26:47;;;;;;;6.67;2.77;;;7.60;99.90;;;;;;5006383;28;20186;-86
2022/02/23 01:29:12;;;;;;;4.60;2.90;;;7.60;99.90;;;;;;5007506;28;20201;-86
2022/02/23 01:31:38;;;;;;;7.53;2.93;;;7.70;99.90;;;;;;4994268;28;20742;-84
2022/02/23 01:34:04;;;;;;;8.90;3.40;;;7.80;99.90;;;;;;5004312;28;20190;-86
2022/02/23 01:36:30;;;;;;;4.00;1.97;;;7.80;99.90;;;;;;4995166;28;20205;-83
2022/02/23 01:38:56;;;;;;;4.40;2.03;;;7.80;99.90;;;;;;4988345;28;20242;-84
2022/02/23 01:41:21;;;;;;;7.43;2.00;;;7.80;99.90;;;;;;5002516;28;20206;-86
2022/02/23 01:43:48;;;;;;;4.23;1.90;;;7.80;99.90;;;;;;5010452;28;20222;-85
2022/02/23 01:46:18;;;;;;;3.40;1.97;;;7.90;99.90;;;;;;5007509;28;20812;-86
2022/02/23 01:48:45;;;;;;;2.67;1.87;;;8.00;99.90;;;;;;5002163;28;20205;-86
2022/02/23 01:51:10;;;;;;;4.97;1.70;;;7.90;99.90;;;;;;4993323;28;20264;-86
2022/02/23 01:53:36;;;;;;;3.10;1.70;;;7.90;99.90;;;;;;5008524;28;20190;-86
2022/02/23 01:56:03;;;;;;;5.63;2.00;;;7.90;99.90;;;;;;5006994;28;20196;-84
2022/02/23 01:58:30;;;;;;;3.37;1.80;;;7.90;99.90;;;;;;4998244;28;20241;-85
2022/02/23 02:00:57;;;;;;;3.10;1.67;;;7.90;99.90;;;;;;5009267;28;20222;-85
2022/02/23 02:03:23;;;;;;;4.43;1.80;;;7.80;99.90;;;;;;5007029;28;20224;-85
2022/02/23 02:05:49;;;;;;;4.47;1.90;;;7.70;99.90;;;;;;5010097;28;20189;-86
2022/02/23 02:08:15;;;;;;;3.43;1.70;;;7.60;99.90;;;;;;5010513;28;20289;-85
2022/02/23 02:10:41;;;;;;;5.03;2.20;;;7.50;99.90;;;;;;5021663;28;20240;-83
2022/02/23 02:13:07;;;;;;;4.47;2.00;;;7.50;99.90;;;;;;4998558;28;20213;-86
2022/02/23 02:15:33;;;;;;;4.23;1.90;;;7.50;99.90;;;;;;5013500;28;20185;-86
2022/02/23 02:17:58;;;;;;;2.00;1.80;;;7.60;99.90;;;;;;5009797;28;20206;-86
2022/02/23 02:20:24;;;;;;;3.17;1.73;;;7.60;99.90;;;;;;4996789;28;20344;-86
2022/02/23 02:22:50;;;;;;;3.47;2.03;;;7.60;99.90;;;;;;5014838;28;20216;-86
2022/02/23 02:25:16;;;;;;;2.67;2.47;;;7.80;99.90;;;;;;5016829;28;20255;-85
2022/02/23 02:27:41;;;;;;;4.63;2.20;;;7.80;99.90;;;;;;5024720;28;20205;-84
2022/02/23 02:30:08;;;;;;;4.80;2.20;;;7.80;99.90;;;;;;5012970;28;20240;-86
2022/02/23 02:32:34;;;;;;;2.30;1.90;;;7.80;99.90;;;;;;4991837;28;20297;-85
2022/02/23 02:34:59;;;;;;;3.20;1.80;;;7.70;99.90;;;;;;4998811;28;20238;-84
2022/02/23 02:37:25;;;;;;;2.37;1.87;;;7.80;99.90;;;;;;4998359;28;20232;-86
2022/02/23 02:39:51;;;;;;;3.37;2.00;;;8.00;99.90;;;;;;5013150;28;20193;-85
2022/02/23 02:42:18;;;;;;;3.10;2.10;;;8.00;99.90;;;;;;4991375;28;20221;-85
2022/02/23 02:44:45;;;;;;;4.53;2.07;;;8.00;99.90;;;;;;5012932;28;20194;-84
2022/02/23 02:47:11;;;;;;;3.03;2.00;;;7.90;99.90;;;;;;5010704;28;20194;-84
2022/02/23 02:49:37;;;;;;;2.73;2.33;;;7.90;99.90;;;;;;5010502;28;20226;-85
2022/02/23 02:52:04;;;;;;;3.03;2.10;;;7.80;99.90;;;;;;5013246;28;20296;-86
2022/02/23 02:54:30;;;;;;;4.53;2.10;;;7.90;99.90;;;;;;5001799;28;20189;-85
2022/02/23 02:56:56;;;;;;;2.00;1.80;;;7.80;99.90;;;;;;5011701;28;20190;-85
2022/02/23 02:59:22;;;;;;;4.67;2.30;;;7.70;99.90;;;;;;5007922;28;20192;-84
2022/02/23 03:01:47;;;;;;;3.13;2.20;;;7.80;99.90;;;;;;5012204;28;20206;-85
2022/02/23 03:04:14;;;;;;;3.50;2.30;;;7.80;99.90;;;;;;5005744;28;20213;-84
2022/02/23 03:06:39;;;;;;;3.83;2.10;;;7.90;99.90;;;;;;5017150;28;20186;-85
2022/02/23 03:09:07;;;;;;;6.67;2.93;;;7.80;99.90;;;;;;5007253;28;20196;-84
2022/02/23 03:11:34;;;;;;;2.83;2.40;;;7.80;99.90;;;;;;4997308;28;20216;-85
2022/02/23 03:14:00;;;;;;;6.10;2.80;;;7.90;99.90;;;;;;5011248;28;20284;-85
2022/02/23 03:16:26;;;;;;;3.93;2.80;;;7.90;99.90;;;;;;4989710;28;20232;-84
2022/02/23 03:18:52;;;;;;;4.93;2.50;;;7.90;99.90;;;;;;5014670;28;20205;-85
2022/02/23 03:21:17;;;;;;;5.33;2.80;;;7.90;99.90;;;;;;4999646;28;20299;-84
2022/02/23 03:23:44;;;;;;;3.87;2.90;;;7.90;99.90;;;;;;4991207;28;20222;-82
2022/02/23 03:26:11;;;;;;;3.57;2.47;;;7.90;99.90;;;;;;5010073;28;20214;-84
2022/02/23 03:28:38;;;;;;;2.80;2.30;;;7.90;99.90;;;;;;5011189;28;20360;-85
2022/02/23 03:31:04;;;;;;;4.37;2.50;;;7.80;99.90;;;;;;5034254;28;20205;-81
2022/02/23 03:33:32;;;;;;;3.97;2.53;;;7.80;99.90;;;;;;5031383;28;20200;-84
2022/02/23 03:35:58;;;;;;;3.97;2.60;;;7.80;99.90;;;;;;5011601;28;20268;-84
2022/02/23 03:38:24;;;;;;;4.00;2.70;;;7.80;99.90;;;;;;5015986;28;20197;-82
2022/02/23 03:40:50;;;;;;;4.07;2.33;;;7.80;99.90;;;;;;5033970;28;20202;-82
2022/02/23 03:43:17;;;;;;;4.73;2.50;;;7.80;99.90;;;;;;5011099;28;20697;-84
2022/02/23 03:45:44;;;;;;;3.43;2.43;;;7.80;99.90;;;;;;5010902;28;20700;-85
2022/02/23 03:48:09;;;;;;;5.07;2.87;;;7.80;99.90;;;;;;4987571;28;20198;-85
2022/02/23 03:50:35;;;;;;;5.33;2.90;;;7.80;99.90;;;;;;5012482;28;20820;-85
2022/02/23 03:53:01;;;;;;;5.97;3.40;;;7.90;99.90;;;;;;4991936;28;20736;-85
2022/02/23 03:55:28;;;;;;;3.13;2.63;;;8.00;99.90;;;;;;5011912;28;20191;-85
2022/02/23 03:57:54;;;;;;;5.90;3.30;;;8.00;99.90;;;;;;5002542;28;20194;-85
2022/02/23 04:00:19;;;;;;;4.67;3.00;;;7.90;99.90;;;;;;5011316;28;20607;-84
2022/02/23 04:02:45;;;;;;;3.10;2.40;;;7.80;99.90;;;;;;5016739;28;20224;-85
2022/02/23 04:05:12;;;;;;;5.40;3.10;;;7.70;99.90;;;;;;5005975;28;20661;-85
2022/02/23 04:07:38;;;;;;;3.13;2.43;;;7.80;99.90;;;;;;5013733;28;20194;-85
2022/02/23 04:10:06;;;;;;;4.17;2.40;;;7.80;99.90;;;;;;5010002;28;20251;-85
2022/02/23 04:12:31;;;;;;;3.90;2.23;;;7.80;99.90;;;;;;5007790;28;20198;-85
2022/02/23 04:14:57;;;;;;;3.40;2.47;;;7.90;99.90;;;;;;4997693;28;20248;-85
2022/02/23 04:17:23;;;;;;;3.50;2.50;;;7.80;99.90;;;;;;5012604;28;20272;-85
2022/02/23 04:19:49;;;;;;;3.10;2.80;;;7.80;99.90;;;;;;5004325;28;20207;-83
2022/02/23 04:22:14;;;;;;;3.13;2.37;;;7.80;99.90;;;;;;4982993;28;20233;-83
2022/02/23 04:24:40;;;;;;;3.23;2.67;;;7.70;99.90;;;;;;4981011;28;20189;-83
2022/02/23 04:27:06;;;;;;;3.37;2.33;;;7.60;99.90;;;;;;5011030;28;20240;-83
2022/02/23 04:29:32;;;;;;;4.03;3.00;;;7.60;99.90;;;;;;5009933;28;20310;-83
2022/02/23 04:31:58;;;;;;;3.30;3.00;;;7.70;99.90;;;;;;5015215;28;20800;-83
2022/02/23 04:34:24;;;;;;;3.17;2.80;;;7.70;99.90;;;;;;5012331;28;20216;-82
2022/02/23 04:36:50;;;;;;;3.33;3.03;;;7.70;99.90;;;;;;5013780;28;20274;-83
2022/02/23 04:39:15;;;;;;;4.33;3.73;;;7.70;99.90;;;;;;5013304;28;20213;-84
2022/02/23 04:41:41;;;;;;;6.20;5.43;;;7.80;99.90;;;;;;5010223;28;20212;-83
2022/02/23 04:44:07;;;;;;;5.60;5.10;;;7.70;99.90;;;;;;5008511;28;20220;-83
2022/02/23 04:46:34;;;;;;;7.20;6.60;;;7.60;99.90;;;;;;5015885;28;20266;-83
2022/02/23 04:49:00;;;;;;;9.30;6.80;;;7.70;99.90;;;;;;5010879;28;20264;-83
2022/02/23 04:51:29;;;;;;;17.33;15.53;;;7.70;99.90;;;;;;5006297;28;20210;-83
2022/02/23 04:53:56;;;;;;;6.57;5.97;;;7.60;99.90;;;;;;5010153;28;20688;-83
2022/02/23 04:56:21;;;;;;;5.40;4.90;;;7.50;99.90;;;;;;5018519;28;20251;-84
2022/02/23 04:58:47;;;;;;;4.93;4.53;;;7.40;99.90;;;;;;5014360;28;20197;-83
2022/02/23 05:01:13;;;;;;;5.07;3.60;;;7.30;99.90;;;;;;5006889;28;20210;-84
2022/02/23 05:03:38;;;;;;;5.53;3.80;;;7.40;99.90;;;;;;5015463;28;20848;-84
2022/02/23 05:06:05;;;;;;;6.03;4.00;;;7.30;99.90;;;;;;5011582;28;20186;-84
2022/02/23 05:08:31;;;;;;;7.73;4.73;;;7.30;99.90;;;;;;5013019;28;20181;-84
2022/02/23 05:10:57;;;;;;;5.27;4.77;;;7.40;99.90;;;;;;5018582;28;20204;-84
2022/02/23 05:13:27;;;;;;;4.63;3.77;;;7.30;99.90;;;;;;5021753;28;20680;-84
2022/02/23 05:15:58;;;;;;;4.93;4.47;;;7.20;99.90;;;;;;4993201;28;20202;-84
2022/02/23 05:18:26;;;;;;;4.63;4.20;;;7.20;99.90;;;;;;5010904;28;20214;-84
2022/02/23 05:20:56;;;;;;;4.40;3.87;;;7.20;99.90;;;;;;5010949;28;20304;-84
2022/02/23 05:23:22;;;;;;;5.80;4.10;;;7.20;99.90;;;;;;5011621;28;20300;-84
2022/02/23 05:25:48;;;;;;;4.60;4.10;;;7.10;99.90;;;;;;5006259;28;20672;-83
2022/02/23 05:28:14;;;;;;;5.80;4.13;;;7.10;99.90;;;;;;5011414;28;20198;-84
2022/02/23 05:30:39;;;;;;;5.63;4.53;;;7.10;99.90;;;;;;5013324;28;20213;-84
2022/02/23 05:33:05;;;;;;;5.70;3.90;;;7.10;99.90;;;;;;5016630;28;20201;-83
2022/02/23 05:35:32;;;;;;;6.03;4.30;;;7.10;99.90;;;;;;5007969;28;20205;-83
2022/02/23 05:37:58;;;;;;;5.37;3.53;;;7.10;99.90;;;;;;5007453;28;20186;-83
2022/02/23 05:40:24;;;;;;;4.80;4.00;;;7.10;99.90;;;;;;5010737;28;20268;-84
2022/02/23 05:42:50;;;;;;;4.37;3.97;;;7.10;99.90;;;;;;5010843;28;20217;-84
2022/02/23 05:45:15;;;;;;;6.93;5.00;;;7.00;99.90;;;;;;5007967;28;20279;-84
2022/02/23 05:47:41;;;;;;;5.07;4.07;;;6.90;99.90;;;;;;5008327;28;20745;-83
2022/02/23 05:50:08;;;;;;;5.30;3.50;;;6.90;99.90;;;;;;5008725;28;20221;-83
2022/02/23 05:52:34;;;;;;;4.60;4.03;;;6.80;99.90;;;;;;5010456;28;20344;-83
2022/02/23 05:54:59;;;;;;;5.13;3.47;;;6.80;99.90;;;;;;5006074;28;20220;-83
2022/02/23 05:57:25;;;;;;;4.60;3.23;;;6.90;99.90;;;;;;4994159;28;20641;-83
2022/02/23 05:59:51;;;;;;;5.40;3.43;;;6.90;99.90;;;;;;5010609;28;20217;-84
2022/02/23 06:02:17;;;;;;;4.30;3.20;;;6.90;99.90;;;;;;4999486;28;20301;-83
2022/02/23 06:04:43;;;;;;;4.23;3.53;;;7.00;99.90;;;;;;5010946;28;20202;-84
2022/02/23 06:07:09;;;;;;;3.50;3.00;;;7.00;99.90;;;;;;5010528;28;20193;-82
2022/02/23 06:09:34;;;;;;;4.77;3.10;;;7.00;99.90;;;;;;5008330;28;20198;-83
2022/02/23 06:12:01;;;;;;;3.70;3.17;;;6.90;99.90;;;;;;5010096;28;20237;-83
2022/02/23 06:14:27;;;;;;;3.90;3.43;;;6.80;99.90;;;;;;4991043;28;20201;-83
2022/02/23 06:16:53;;;;;;;4.47;3.77;;;6.80;99.90;;;;;;5013611;28;20182;-83
2022/02/23 06:19:19;;;;;;;3.70;3.23;;;6.80;99.90;;;;;;5035294;28;20252;-83
2022/02/23 06:21:45;;;;;;;4.10;3.07;;;6.80;99.90;;;;;;4992370;28;20229;-84
2022/02/23 06:24:11;;;;;;;4.43;4.03;;;6.80;99.90;;;;;;5009134;28;20296;-84
2022/02/23 06:26:36;;;;;;;4.20;3.13;;;6.90;99.90;;;;;;5003017;28;20181;-84
2022/02/23 06:29:02;;;;;;;5.77;4.77;;;6.80;99.90;;;;;;5024288;28;20233;-84
2022/02/23 06:31:28;;;;;;;5.20;4.80;;;6.90;99.90;;;;;;5025463;28;20293;-84
2022/02/23 06:33:54;;;;;;;5.77;3.90;;;6.80;99.90;;;;;;5015261;28;20669;-84
2022/02/23 06:36:20;;;;;;;5.23;4.57;;;6.80;99.90;;;;;;5013349;28;20257;-84
2022/02/23 06:38:46;;;;;;;4.40;4.00;;;6.80;99.90;;;;;;5009529;28;20194;-84
2022/02/23 06:41:14;;;;;;;4.10;3.73;;;6.80;99.90;;;;;;5009813;28;20685;-83
2022/02/23 06:43:42;;;;;;;5.37;3.37;;;6.90;99.90;;;;;;5009280;28;20583;-84
2022/02/23 06:46:08;;;;;;;4.53;4.13;;;7.00;99.90;;;;;;5004165;28;20229;-84
2022/02/23 06:48:36;;;;;;;4.33;3.23;;;7.00;99.90;;;;;;5014102;28;20217;-83
2022/02/23 06:51:02;;;;;;;3.87;3.40;;;6.90;99.90;;;;;;5015880;28;20711;-84
2022/02/23 06:53:28;;;;;;;3.40;3.10;;;7.00;99.90;;;;;;5016348;28;20289;-84
2022/02/23 06:55:54;;;;;;;3.40;3.10;;;7.00;99.90;;;;;;5012102;28;20533;-84
2022/02/23 06:58:20;;;;;;;4.17;3.50;;;7.00;99.90;;;;;;5014913;28;20257;-84
2022/02/23 07:00:46;;;;;;;4.53;3.73;;;7.10;99.90;;;;;;5015747;28;20696;-85
2022/02/23 07:03:12;;;;;;;6.73;3.50;;;7.10;99.90;;;;;;5010105;28;20229;-82
2022/02/23 07:05:38;;;;;;;5.43;4.17;;;7.00;99.90;;;;;;5019059;28;20213;-82
2022/02/23 07:08:08;;;;;;;4.50;4.10;;;6.90;99.90;;;;;;5018073;28;20799;-84
2022/02/23 07:10:35;;;;;;;4.53;4.00;;;6.80;99.90;;;;;;5014677;28;20247;-83
2022/02/23 07:13:04;;;;;;;6.60;3.60;;;6.90;99.90;;;;;;5027084;28;20178;-83
2022/02/23 07:15:30;;;;;;;3.77;3.40;;;6.90;99.90;;;;;;5030878;28;20193;-83
2022/02/23 07:17:56;;;;;;;3.20;2.90;;;6.90;99.90;;;;;;5029851;28;20439;-83
2022/02/23 07:20:22;;;;;;;3.70;3.30;;;7.00;99.90;;;;;;5027198;28;20201;-83
2022/02/23 07:22:49;;;;;;;3.40;3.10;;;7.00;99.90;;;;;;5027177;28;20479;-83
2022/02/23 07:25:15;;;;;;;5.17;3.37;;;7.00;99.90;;;;;;5025009;28;20200;-83
2022/02/23 07:27:41;;;;;;;3.90;3.57;;;7.10;99.90;;;;;;5019699;28;20193;-83
2022/02/23 07:30:10;;;;;;;3.90;3.60;;;7.10;99.90;;;;;;5017703;28;20209;-83
2022/02/23 07:32:36;;;;;;;5.90;3.83;;;7.10;99.90;;;;;;5015861;28;20207;-83
2022/02/23 07:35:05;;;;;;;4.53;4.00;;;7.20;99.90;;;;;;5011468;28;20202;-83
2022/02/23 07:37:31;;;;;;;4.23;3.80;;;7.20;99.90;;;;;;4998102;28;20202;-83
2022/02/23 07:40:01;;;;;;;6.73;4.33;;;7.20;99.90;;;;;;5016805;28;20186;-83
2022/02/23 07:42:27;;;;;;;4.53;4.03;;;7.30;99.90;;;;;;5013453;28;20229;-83
2022/02/23 07:44:53;;;;;;;4.27;3.87;;;7.20;99.90;;;;;;5016680;28;20189;-83
2022/02/23 07:47:19;;;;;;;4.27;3.83;;;7.20;99.90;;;;;;5001556;28;20243;-83
2022/02/23 07:49:49;;;;;;;4.40;3.80;;;7.30;99.90;;;;;;5015867;28;20205;-83
2022/02/23 07:52:16;;;;;;;4.97;3.70;;;7.50;99.90;;;;;;5017315;28;20248;-83
2022/02/23 07:54:42;;;;;;;4.77;4.33;;;7.40;99.90;;;;;;5017388;28;20182;-83
2022/02/23 07:57:07;;;;;;;4.23;3.77;;;7.40;99.90;;;;;;5021814;28;20671;-84
2022/02/23 07:59:33;;;;;;;7.67;4.13;;;7.30;99.90;;;;;;5022637;28;20192;-84
2022/02/23 08:01:59;;;;;;;5.40;4.27;;;7.30;99.90;;;;;;4990180;28;20235;-84
2022/02/23 08:04:25;;;;;;;6.67;4.83;;;7.40;99.90;;;;;;5010219;28;20517;-84
2022/02/23 08:06:51;;;;;;;5.73;5.13;;;7.50;99.90;;;;;;5002342;28;20209;-83
2022/02/23 08:09:17;;;;;;;5.33;4.53;;;7.60;99.90;;;;;;5019335;28;20193;-84
2022/02/23 08:11:43;;;;;;;5.50;4.37;;;7.50;99.90;;;;;;5016714;28;20218;-84
2022/02/23 08:14:11;;;;;;;7.67;4.70;;;7.50;99.90;;;;;;5019481;28;20224;-83
2022/02/23 08:19:37;;;;;;;6.57;4.77;;;7.50;99.90;;;;;;4992666;28;20202;-83
2022/02/23 08:22:11;;;;;;;6.43;4.80;;;7.60;99.90;;;;;;5000351;28;20227;-84
2022/02/23 08:24:44;;;;;;;5.10;4.60;;;7.60;99.90;;;;;;5017492;28;20188;-84
2022/02/23 08:27:13;;;;;;;6.37;5.27;;;7.50;99.90;;;;;;5009896;28;20194;-84
2022/02/23 08:29:40;;;;;;;5.97;4.60;;;7.50;99.90;;;;;;4997478;28;20194;-84
2022/02/23 08:32:08;;;;;;;5.40;4.40;;;7.40;99.90;;;;;;5014601;28;20206;-83
2022/02/23 08:34:35;;;;;;;7.77;5.87;;;7.40;99.90;;;;;;5009760;28;20229;-84
2022/02/23 08:37:01;;;;;;;9.73;5.80;;;7.50;99.90;;;;;;5012485;28;20216;-83
2022/02/23 08:39:29;;;;;;;8.80;5.83;;;7.60;99.90;;;;;;5014468;28;20288;-83
2022/02/23 08:41:56;;;;;;;5.97;5.37;;;7.60;99.90;;;;;;5014890;28;20205;-83
2022/02/23 08:44:22;;;;;;;8.37;5.37;;;7.70;99.90;;;;;;5020751;28;20693;-83
2022/02/23 08:46:48;;;;;;;10.50;5.40;;;7.60;99.90;;;;;;5015461;28;20193;-83
2022/02/23 08:49:15;;;;;;;7.00;5.00;;;7.60;99.90;;;;;;5011120;28;20216;-84
2022/02/23 08:51:44;;;;;;;9.03;4.87;;;7.50;99.90;;;;;;5015436;28;20214;-83
2022/02/23 08:54:11;;;;;;;12.87;5.53;;;7.60;99.90;;;;;;5014247;28;20279;-83
2022/02/23 08:56:38;;;;;;;8.27;5.07;;;7.70;99.90;;;;;;5022204;28;20193;-83
2022/02/23 08:59:04;;;;;;;6.90;4.40;;;7.70;99.90;;;;;;5019878;28;20257;-84
2022/02/23 09:01:32;;;;;;;8.53;4.80;;;7.90;99.90;;;;;;5025627;28;20205;-83
2022/02/23 09:04:02;;;;;;;6.87;4.73;;;7.70;99.90;;;;;;5021849;28;20209;-84
2022/02/23 09:06:33;;;;;;;7.17;4.60;;;7.70;99.90;;;;;;5028462;28;20177;-83
2022/02/23 09:08:59;;;;;;;7.43;4.27;;;7.70;99.90;;;;;;5028888;28;20202;-83
2022/02/23 09:11:26;;;;;;;6.00;4.27;;;7.80;99.90;;;;;;5017315;28;20209;-83
2022/02/23 09:13:52;;;;;;;6.50;3.73;;;7.90;99.90;;;;;;5014154;28;20209;-83
2022/02/23 09:16:17;;;;;;;4.30;3.90;;;8.00;99.90;;;;;;5038372;28;20197;-83
2022/02/23 09:18:44;;;;;;;6.53;3.60;;;8.20;99.90;;;;;;5033464;28;20281;-83
2022/02/23 09:21:10;;;;;;;8.97;4.47;;;8.20;99.90;;;;;;5014354;28;20286;-84
2022/02/23 09:23:36;;;;;;;5.43;4.00;;;8.10;99.90;;;;;;5014549;28;20225;-83
2022/02/23 09:26:04;;;;;;;6.93;3.40;;;8.10;99.90;;;;;;5014921;28;20197;-83
2022/02/23 09:28:31;;;;;;;7.70;3.50;;;8.20;99.90;;;;;;4998290;28;20201;-83
2022/02/23 09:30:57;;;;;;;8.03;3.10;;;8.40;99.90;;;;;;5014462;28;20228;-83
2022/02/23 09:33:24;;;;;;;7.30;3.80;;;8.40;99.90;;;;;;4997953;28;20205;-83
2022/02/23 09:35:50;;;;;;;5.60;3.20;;;8.50;99.90;;;;;;4996519;28;20288;-83
2022/02/23 09:38:17;;;;;;;4.37;3.53;;;8.70;99.90;;;;;;4997225;28;20206;-84
2022/02/23 09:40:52;;;;;;;9.57;3.37;;;8.80;99.90;;;;;;5016196;28;20252;-84
2022/02/23 09:43:19;;;;;;;6.50;3.60;;;9.10;99.90;;;;;;5015693;28;20249;-83
2022/02/23 09:45:53;;;;;;;7.10;3.13;;;9.10;99.90;;;;;;5016345;28;20193;-84
2022/02/23 09:48:29;;;;;;;7.50;3.17;;;9.20;99.90;;;;;;5013013;28;20189;-84
2022/02/23 09:50:56;;;;;;;6.73;3.50;;;9.30;99.90;;;;;;5010840;28;20213;-84
2022/02/23 09:53:22;;;;;;;6.97;3.10;;;9.40;99.90;;;;;;4990605;28;20202;-85
2022/02/23 09:55:52;;;;;;;5.63;3.67;;;9.60;99.90;;;;;;5008983;28;20315;-85
2022/02/23 09:58:18;;;;;;;7.20;3.47;;;9.90;99.90;;;;;;5008488;28;20205;-85
2022/02/23 10:00:45;;;;;;;5.90;3.23;;;10.00;99.80;;;;;;5007895;28;20274;-84
2022/02/23 10:03:12;;;;;;;6.87;3.00;;;10.10;99.90;;;;;;4994688;28;20276;-83
2022/02/23 10:05:40;;;;;;;5.67;3.67;;;9.90;99.90;;;;;;5009865;28;20191;-82
2022/02/23 10:08:09;;;;;;;6.00;3.63;;;10.10;99.90;;;;;;5028331;28;20446;-82
2022/02/23 10:10:39;;;;;;;8.10;3.80;;;10.30;96.70;;;;;;5015619;28;20210;-85
2022/02/23 10:13:07;;;;;;;7.83;3.83;;;10.30;97.00;;;;;;5009429;28;20692;-85
2022/02/23 10:15:41;;;;;;;4.80;3.40;;;10.10;98.10;;;;;;5011408;28;20190;-83
2022/02/23 10:18:12;;;;;;;5.00;3.40;;;10.10;97.90;;;;;;5011354;28;20227;-84
2022/02/23 10:20:39;;;;;;;6.73;3.70;;;10.40;93.60;;;;;;5009979;28;20213;-85
2022/02/23 10:23:20;;;;;;;3.97;3.20;;;10.40;94.40;;;;;;5009698;28;20225;-85
2022/02/23 10:25:58;;;;;;;8.33;3.80;;;10.60;94.20;;;;;;5009386;28;20613;-84
2022/02/23 10:28:29;;;;;;;7.03;3.33;;;10.80;91.60;;;;;;5008568;28;20189;-85
2022/02/23 10:31:00;;;;;;;5.30;3.13;;;10.70;90.60;;;;;;4983000;28;20214;-83
2022/02/23 10:33:36;;;;;;;5.90;3.47;;;10.40;91.50;;;;;;5016628;28;20191;-85
2022/02/23 10:36:11;;;;;;;6.60;3.13;;;10.50;93.90;;;;;;5013208;28;20197;-84
2022/02/23 10:38:42;;;;;;;4.70;3.23;;;10.70;90.80;;;;;;5013066;28;20609;-86
2022/02/23 10:41:22;;;;;;;7.33;3.03;;;11.10;89.10;;;;;;5013042;28;20265;-84
2022/02/23 10:43:48;;;;;;;6.73;3.10;;;11.10;89.90;;;;;;5015173;28;20501;-84
2022/02/23 10:46:16;;;;;;;4.73;2.80;;;11.40;86.20;;;;;;5005132;28;20180;-84
2022/02/23 10:48:52;;;;;;;8.83;3.10;;;11.60;86.70;;;;;;5021904;28;20188;-88
2022/02/23 10:51:24;;;;;;;5.20;2.87;;;11.90;79.60;;;;;;5021633;28;20218;-85
2022/02/23 10:53:51;;;;;;;6.87;2.97;;;12.00;82.90;;;;;;5025598;28;20176;-83
2022/02/23 10:56:30;;;;;;;5.63;2.93;;;12.20;85.40;;;;;;5025242;28;20188;-86
2022/02/23 10:59:05;;;;;;;6.63;2.90;;;12.40;86.30;;;;;;5018314;28;20207;-83
2022/02/23 11:01:32;;;;;;;5.23;3.10;;;12.40;83.10;;;;;;5010943;28;20204;-85
2022/02/23 11:03:58;;;;;;;7.83;3.63;;;12.50;83.10;;;;;;5005256;28;20208;-85
2022/02/23 11:06:24;;;;;;;5.90;2.83;;;12.60;80.40;;;;;;5006304;28;20567;-83
2022/02/23 11:08:51;;;;;;;4.23;2.90;;;12.80;79.60;;;;;;5024544;28;20185;-85
2022/02/23 11:11:19;;;;;;;6.17;3.37;;;13.10;78.70;;;;;;5007164;28;20208;-85
2022/02/23 11:13:45;;;;;;;10.13;3.67;;;13.30;77.10;;;;;;5011500;28;20193;-85
2022/02/23 11:16:13;;;;;;;6.57;3.47;;;13.20;77.40;;;;;;5027408;28;20261;-83
2022/02/23 11:18:44;;;;;;;4.20;3.03;;;13.30;77.40;;;;;;5012481;28;20197;-83
2022/02/23 11:21:15;;;;;;;7.13;2.97;;;13.20;75.30;;;;;;5009006;28;20268;-86
2022/02/23 11:23:42;;;;;;;8.97;3.23;;;13.10;77.20;;;;;;4990705;28;20216;-83
2022/02/23 11:26:09;;;;;;;7.00;3.60;;;13.00;76.90;;;;;;5006103;28;20641;-83
2022/02/23 11:28:42;;;;;;;4.97;2.90;;;12.90;74.60;;;;;;4991108;28;20223;-83
2022/02/23 11:31:16;;;;;;;7.23;3.00;;;13.10;73.30;;;;;;5023014;28;20219;-83
2022/02/23 11:33:53;;;;;;;6.03;3.37;;;13.40;71.30;;;;;;4990545;28;20173;-85
2022/02/23 11:36:44;;;;;;;5.10;2.83;;;13.60;72.30;;;;;;5005733;28;20181;-84
2022/02/23 11:39:19;;;;;;;6.10;3.43;;;14.00;66.70;;;;;;5008468;28;20179;-83
2022/02/23 11:41:53;;;;;;;8.07;3.60;;;14.30;63.40;;;;;;5023092;28;20207;-83
2022/02/23 11:44:26;;;;;;;6.73;3.20;;;13.80;66.50;;;;;;5006049;28;20197;-84
2022/02/23 11:46:58;;;;;;;5.77;2.77;;;13.90;67.10;;;;;;4987565;28;20188;-83
2022/02/23 11:55:53;;;;;;;4.97;3.07;;;14.90;63.20;;;;;;5038340;28;20210;-90
2022/02/23 12:01:47;;;;;;;6.40;2.77;;;14.80;61.40;;;;;;5024583;28;20239;-91
2022/02/23 12:04:14;;;;;;;6.73;3.37;;;14.50;61.10;;;;;;5020162;28;20244;-92
2022/02/23 12:07:13;;;;;;;7.00;3.10;;;14.70;61.40;;;;;;5006139;28;20182;-84
2022/02/23 12:09:55;;;;;;;5.70;3.20;;;15.10;57.30;;;;;;4982332;28;20208;-86
2022/02/23 12:12:52;;;;;;;6.90;3.17;;;15.50;56.50;;;;;;5023402;28;20715;-86
2022/02/23 12:15:47;;;;;;;6.77;3.10;;;15.80;56.20;;;;;;5014447;28;20704;-86
2022/02/23 12:18:17;;;;;;;4.93;2.90;;;16.10;56.40;;;;;;5012584;28;20199;-86
2022/02/23 12:20:46;;;;;;;10.87;3.17;;;16.20;55.40;;;;;;5009815;28;20236;-85
2022/02/23 12:23:11;;;;;;;6.23;3.30;;;16.30;51.10;;;;;;5008707;28;20233;-85
2022/02/23 12:25:56;;;;;;;4.63;3.10;;;16.60;52.10;;;;;;5012559;28;20599;-84
2022/02/23 12:28:24;;;;;;;6.20;2.97;;;16.80;50.80;;;;;;5011445;28;20284;-85
2022/02/23 12:30:52;;;;;;;5.47;2.87;;;16.70;49.30;;;;;;4995956;28;20225;-85
2022/02/23 12:33:18;;;;;;;5.93;2.87;;;16.80;50.00;;;;;;5010887;28;20192;-86
2022/02/23 12:35:46;;;;;;;6.73;3.43;;;16.50;50.80;;;;;;5015886;28;20280;-85
2022/02/23 12:38:14;;;;;;;6.20;3.40;;;16.20;52.10;;;;;;5018013;28;20220;-84
2022/02/23 12:40:42;;;;;;;9.27;3.20;;;16.20;52.90;;;;;;4996965;28;20213;-85
2022/02/23 12:43:11;;;;;;;9.53;5.47;;;16.00;52.80;;;;;;5014001;28;20216;-85
2022/02/23 12:45:59;;;;;;;9.25;7.43;;;16.30;52.60;;;;;;5017298;28;20183;-85
2022/02/23 12:48:33;;;;;;;5.83;3.43;;;17.10;50.00;;;;;;4997497;28;20198;-85
2022/02/23 12:51:10;;;;;;;5.55;3.08;;;17.40;47.70;;;;;;5014870;28;20219;-86
2022/02/23 12:53:41;;;;;;;6.43;3.30;;;17.60;45.90;;;;;;5013220;28;20185;-86
2022/02/23 12:56:18;;;;;;;5.05;2.95;;;17.70;46.80;;;;;;5010269;28;20678;-85
2022/02/23 12:58:44;;;;;;;5.18;3.00;;;17.90;45.80;;;;;;5020525;28;20200;-86
2022/02/23 13:01:26;;;;;;;4.25;2.75;;;17.80;46.30;;;;;;5018495;28;20216;-86
2022/02/23 13:03:54;;;;;;;9.60;7.28;;;17.50;45.80;;;;;;5009245;28;20200;-85
2022/02/23 13:06:32;;;;;;;4.53;3.03;;;17.20;47.20;;;;;;5009616;28;20184;-85
2022/02/23 13:09:00;;;;;;;6.68;3.10;;;17.40;44.60;;;;;;5008833;28;20253;-85
2022/02/23 13:11:32;;;;;;;6.70;2.72;;;17.20;43.90;;;;;;4994521;28;20710;-83